CheckWX is a tool to help pilots better visualize weather data.  It is not intended as a substitute for an official pre-flight weather briefing.

06:09:26 UTC

KRRL METAR
Merrill Municipal Airport
Merrill, Wisconsin, USA
Current

14 mins ago

KRRL 230555Z AUTO 01007KT 10SM OVC011 04/04 A2998 RMK AO2 60003 T00430035 10057 20043 401470043 TSNO
Observed
Apr-23 @ 05:55 UTC
Wind
  • 010° at 7 KTS
Visibility
10 SM
Flight Rules
MVFR
Cloud Levels
  • Overcast at 1,100' AGL
Temperature
C / 39°F
Dewpoint
C / 39°F
Humidity
100%
Altimeter
29.98" Hg
Pressure
1015.22 hPa
Previous

34 mins ago

KRRL 230535Z AUTO 02009KT 10SM OVC011 04/04 A2998 RMK AO2 T00430037 TSNO
Observed
Apr-23 @ 05:35 UTC
Wind
  • 020° at 9 KTS
Visibility
10 SM
Flight Rules
MVFR
Cloud Levels
  • Overcast at 1,100' AGL
Temperature
C / 39°F
Dewpoint
C / 39°F
Humidity
100%
Altimeter
29.98" Hg
Pressure
1015.22 hPa
Previous

54 mins ago

KRRL 230515Z AUTO 02009KT 10SM OVC011 05/04 A2997 RMK AO2 T00450038 TSNO
Observed
Apr-23 @ 05:15 UTC
Wind
  • 020° at 9 KTS
Visibility
10 SM
Flight Rules
MVFR
Cloud Levels
  • Overcast at 1,100' AGL
Temperature
C / 41°F
Dewpoint
C / 39°F
Humidity
93%
Altimeter
29.97" Hg
Pressure
1014.92 hPa